Time;durP1;ratioP1;P1;durP2;ratioP2;P2;SDS_P1;SDS_P2;PMS_P1;PMS_P2;Temp;Humidity;BMP_temperature;BMP_pressure;BME280_temperature;BME280_humidity;BME280_pressure;Samples;Min_cycle;Max_cycle;Signal;HPM_P1;HPM_P2
2022/03/10 00:02:07;;;;;;;26.00;14.70;;;10.40;46.10;;;;;;4993123;28;20097;-77
2022/03/10 00:04:36;;;;;;;28.13;15.73;;;10.30;46.50;;;;;;4992981;28;20026;-76
2022/03/10 00:07:02;;;;;;;23.73;14.80;;;10.30;46.50;;;;;;4993099;28;20035;-76
2022/03/10 00:09:32;;;;;;;24.65;15.18;;;10.30;46.50;;;;;;4993660;28;20030;-77
2022/03/10 00:11:58;;;;;;;24.63;14.90;;;10.20;47.00;;;;;;4993205;28;20038;-75
2022/03/10 00:14:24;;;;;;;22.58;14.40;;;10.20;46.30;;;;;;4993292;28;20474;-76
2022/03/10 00:16:50;;;;;;;23.75;14.43;;;10.20;46.30;;;;;;4992691;28;20048;-76
2022/03/10 00:19:16;;;;;;;25.38;14.85;;;10.30;46.90;;;;;;4993317;28;20026;-76
2022/03/10 00:21:43;;;;;;;24.10;14.65;;;10.30;46.30;;;;;;4993322;28;20034;-75
2022/03/10 00:24:08;;;;;;;25.25;15.57;;;10.30;46.10;;;;;;4993147;28;20031;-75
2022/03/10 00:26:34;;;;;;;22.45;13.82;;;10.20;45.80;;;;;;4993186;28;20386;-76
2022/03/10 00:28:59;;;;;;;24.45;14.23;;;10.20;46.00;;;;;;4992662;28;20061;-75
2022/03/10 00:31:25;;;;;;;23.88;14.05;;;10.10;46.10;;;;;;4992995;28;20046;-75
2022/03/10 00:33:51;;;;;;;22.92;13.85;;;10.10;46.40;;;;;;4992428;28;20030;-75
2022/03/10 00:36:16;;;;;;;23.63;14.00;;;10.10;46.20;;;;;;4992665;28;20161;-75
2022/03/10 00:38:42;;;;;;;24.77;14.55;;;10.10;46.20;;;;;;4992522;28;20026;-75
2022/03/10 00:41:09;;;;;;;24.20;13.77;;;10.10;46.20;;;;;;5009883;28;20050;-75
2022/03/10 00:43:35;;;;;;;22.10;13.88;;;10.20;46.40;;;;;;5009790;28;20077;-75
2022/03/10 00:46:01;;;;;;;20.80;13.25;;;10.20;46.40;;;;;;5004985;28;20030;-75
2022/03/10 00:48:26;;;;;;;25.80;13.90;;;10.20;46.40;;;;;;5004744;28;20045;-75
2022/03/10 00:50:55;;;;;;;22.08;13.80;;;10.30;46.40;;;;;;4998267;28;20374;-75
2022/03/10 00:53:20;;;;;;;21.83;14.18;;;10.20;46.50;;;;;;4997980;28;20432;-75
2022/03/10 00:55:46;;;;;;;24.45;14.57;;;10.20;46.40;;;;;;5003696;28;20022;-75
2022/03/10 00:58:12;;;;;;;22.35;14.55;;;10.20;46.50;;;;;;5010890;28;20049;-75
2022/03/10 01:00:37;;;;;;;26.92;14.93;;;10.20;46.80;;;;;;5006777;28;20030;-76
2022/03/10 01:03:04;;;;;;;25.10;13.65;;;10.10;46.90;;;;;;4999737;28;20392;-76
2022/03/10 01:05:30;;;;;;;21.05;13.40;;;10.10;46.90;;;;;;4994390;28;20113;-76
2022/03/10 01:07:56;;;;;;;20.90;13.88;;;10.10;47.40;;;;;;4999239;28;20149;-76
2022/03/10 01:10:21;;;;;;;22.95;13.75;;;10.00;47.10;;;;;;5013130;28;20030;-76
2022/03/10 01:12:48;;;;;;;23.10;13.95;;;10.00;47.00;;;;;;5014787;28;20109;-76
2022/03/10 01:15:22;;;;;;;23.80;14.35;;;9.90;47.00;;;;;;5000605;28;20025;-76
2022/03/10 01:17:48;;;;;;;22.40;13.43;;;9.80;47.30;;;;;;4996992;28;20436;-76
2022/03/10 01:20:14;;;;;;;21.83;14.35;;;9.80;47.50;;;;;;5013304;28;20052;-76
2022/03/10 01:22:40;;;;;;;23.73;14.27;;;9.80;47.40;;;;;;5014356;28;20485;-76
2022/03/10 01:25:07;;;;;;;22.38;14.60;;;9.80;47.90;;;;;;4997622;28;20176;-76
2022/03/10 01:27:33;;;;;;;23.17;14.43;;;9.80;47.90;;;;;;5013866;28;20075;-76
2022/03/10 01:29:59;;;;;;;24.95;15.98;;;9.80;47.90;;;;;;4995478;28;20037;-76
2022/03/10 01:32:28;;;;;;;20.85;14.05;;;9.80;47.80;;;;;;4997659;28;20034;-76
2022/03/10 01:34:54;;;;;;;20.38;13.25;;;9.80;48.10;;;;;;5012713;28;20388;-76
2022/03/10 01:37:20;;;;;;;21.38;14.25;;;9.70;48.00;;;;;;5007973;28;20030;-76
2022/03/10 01:39:46;;;;;;;23.13;14.60;;;9.70;48.50;;;;;;4996664;28;20999;-76
2022/03/10 01:42:13;;;;;;;22.35;14.50;;;9.60;48.40;;;;;;4996125;28;20041;-76
2022/03/10 01:44:39;;;;;;;23.77;14.18;;;9.60;49.00;;;;;;4995422;28;20494;-75
2022/03/10 01:47:05;;;;;;;23.40;14.25;;;9.60;48.80;;;;;;4995959;28;20077;-75
2022/03/10 01:49:32;;;;;;;24.98;14.80;;;9.50;48.80;;;;;;4995756;28;20057;-75
2022/03/10 01:51:58;;;;;;;22.58;14.35;;;9.40;48.80;;;;;;4995762;28;20038;-76
2022/03/10 01:54:24;;;;;;;20.02;13.50;;;9.30;48.70;;;;;;4994998;28;20069;-76
2022/03/10 01:56:51;;;;;;;21.00;13.77;;;9.30;49.10;;;;;;4995480;28;20066;-75
2022/03/10 01:59:18;;;;;;;20.00;13.88;;;9.30;49.30;;;;;;4995232;28;20030;-75
2022/03/10 02:01:44;;;;;;;20.83;13.07;;;9.30;49.50;;;;;;4995462;28;20088;-75
2022/03/10 02:04:09;;;;;;;23.48;14.27;;;9.20;49.70;;;;;;4995268;28;20034;-75
2022/03/10 02:06:35;;;;;;;23.85;13.77;;;9.20;49.60;;;;;;4995271;28;20500;-76
2022/03/10 02:11:46;;;;;;;24.48;13.82;;;9.20;49.60;;;;;;4995379;28;20040;-76
2022/03/10 02:19:39;;;;;;;25.27;14.73;;;9.20;49.70;;;;;;4994872;28;20165;-76
2022/03/10 02:22:10;;;;;;;21.42;14.05;;;9.20;49.70;;;;;;4995061;28;20069;-76
2022/03/10 02:24:38;;;;;;;24.95;14.73;;;9.10;50.00;;;;;;4994937;28;20038;-75
2022/03/10 02:27:13;;;;;;;22.25;14.63;;;9.10;50.00;;;;;;4995303;28;20391;-76
2022/03/10 02:29:40;;;;;;;21.40;13.63;;;9.00;50.50;;;;;;4994339;28;20031;-76
2022/03/10 02:32:06;;;;;;;21.70;14.25;;;8.90;50.50;;;;;;4994935;28;20477;-76
2022/03/10 02:34:32;;;;;;;24.20;14.93;;;8.90;51.10;;;;;;4994326;28;20030;-76
2022/03/10 02:36:57;;;;;;;23.25;14.55;;;8.90;50.70;;;;;;4994619;28;20033;-76
2022/03/10 02:39:23;;;;;;;23.75;13.88;;;8.90;50.60;;;;;;4994528;28;20046;-76
2022/03/10 02:41:49;;;;;;;21.63;13.90;;;8.90;50.60;;;;;;4994702;28;20121;-76
2022/03/10 02:44:14;;;;;;;26.52;14.40;;;8.90;50.60;;;;;;4994471;28;20026;-76
2022/03/10 02:46:40;;;;;;;24.40;13.88;;;8.90;50.70;;;;;;4994360;28;20042;-76
2022/03/10 02:49:05;;;;;;;23.25;14.95;;;8.90;51.00;;;;;;4994498;28;20545;-76
2022/03/10 02:51:31;;;;;;;22.80;13.95;;;8.80;50.40;;;;;;4994490;28;20057;-77
2022/03/10 02:53:56;;;;;;;21.52;13.90;;;8.90;50.50;;;;;;4994831;28;20048;-77
2022/03/10 02:56:22;;;;;;;22.15;13.65;;;8.90;50.50;;;;;;4994176;28;20092;-77
2022/03/10 02:58:47;;;;;;;22.25;14.82;;;8.90;50.60;;;;;;4994127;28;20034;-77
2022/03/10 03:01:13;;;;;;;21.73;13.63;;;9.00;50.30;;;;;;4994084;28;20029;-77
2022/03/10 03:03:38;;;;;;;24.55;16.02;;;9.00;50.30;;;;;;4994022;28;20022;-77
2022/03/10 03:06:04;;;;;;;26.92;14.68;;;9.00;50.10;;;;;;4993860;28;20080;-77
2022/03/10 03:08:29;;;;;;;25.52;14.32;;;9.00;50.30;;;;;;4993616;28;20038;-76
2022/03/10 03:10:55;;;;;;;24.98;14.20;;;9.00;50.10;;;;;;4993959;28;20035;-76
2022/03/10 03:13:20;;;;;;;23.00;14.25;;;9.00;50.00;;;;;;4994058;28;20026;-76
2022/03/10 03:15:49;;;;;;;24.10;14.05;;;9.00;50.10;;;;;;4993954;28;20030;-75
2022/03/10 03:18:15;;;;;;;23.65;13.77;;;9.00;50.00;;;;;;4994010;28;20026;-76
2022/03/10 03:20:41;;;;;;;27.45;15.35;;;9.10;50.10;;;;;;4994139;28;20022;-76
2022/03/10 03:23:07;;;;;;;24.73;15.38;;;9.00;50.20;;;;;;4993951;28;20066;-75
2022/03/10 03:25:32;;;;;;;26.05;14.95;;;9.00;50.20;;;;;;4994248;28;20034;-75
2022/03/10 03:27:58;;;;;;;23.90;14.88;;;9.00;50.10;;;;;;4993475;28;20043;-75
2022/03/10 03:30:24;;;;;;;26.42;15.13;;;9.00;50.20;;;;;;4993812;28;20046;-76
2022/03/10 03:32:50;;;;;;;21.85;14.00;;;9.10;50.30;;;;;;4993915;28;20046;-75
2022/03/10 03:35:16;;;;;;;24.60;14.85;;;9.00;50.40;;;;;;4993710;28;20033;-76
2022/03/10 03:37:41;;;;;;;23.30;14.63;;;9.00;50.30;;;;;;4993746;28;20026;-76
2022/03/10 03:40:08;;;;;;;20.77;14.18;;;9.00;50.30;;;;;;5003286;28;20053;-76
2022/03/10 03:42:34;;;;;;;24.45;14.48;;;8.80;50.80;;;;;;5007924;28;20037;-76
2022/03/10 03:45:01;;;;;;;25.02;15.32;;;8.80;51.00;;;;;;4995064;28;20027;-76
2022/03/10 03:47:26;;;;;;;26.00;14.27;;;8.80;50.90;;;;;;4996592;28;20142;-76
2022/03/10 03:49:52;;;;;;;23.13;14.30;;;8.80;50.80;;;;;;5011697;28;20481;-76
2022/03/10 03:52:17;;;;;;;28.65;14.45;;;8.80;51.00;;;;;;5010744;28;20036;-76
2022/03/10 03:54:43;;;;;;;22.13;14.68;;;8.70;50.90;;;;;;4996833;28;20022;-75
2022/03/10 03:57:09;;;;;;;22.25;14.38;;;8.70;50.80;;;;;;4993855;28;20470;-75
2022/03/10 03:59:34;;;;;;;26.23;14.55;;;8.70;50.90;;;;;;4993073;28;20472;-75
2022/03/10 04:02:00;;;;;;;22.50;14.93;;;8.60;50.90;;;;;;4993462;28;20037;-75
2022/03/10 04:04:25;;;;;;;23.27;14.75;;;8.60;50.90;;;;;;4992934;28;20029;-75
2022/03/10 04:06:51;;;;;;;24.20;14.50;;;8.60;50.80;;;;;;4993605;28;20474;-75
2022/03/10 04:09:16;;;;;;;23.35;15.10;;;8.60;50.90;;;;;;4993093;28;20117;-75
2022/03/10 04:11:42;;;;;;;23.00;14.88;;;8.60;50.90;;;;;;4995959;28;20021;-75
2022/03/10 04:14:10;;;;;;;21.65;14.13;;;8.50;51.10;;;;;;5007965;28;20037;-75
2022/03/10 04:16:35;;;;;;;25.33;14.95;;;8.50;51.30;;;;;;5011890;28;20385;-75
2022/03/10 04:19:01;;;;;;;23.45;14.40;;;8.60;51.30;;;;;;5005480;28;20029;-75
2022/03/10 04:21:26;;;;;;;21.27;14.13;;;8.60;51.10;;;;;;4998643;28;20030;-76
2022/03/10 04:23:52;;;;;;;24.35;14.68;;;8.70;51.10;;;;;;4999724;28;20046;-76
2022/03/10 04:26:17;;;;;;;26.98;15.40;;;8.70;51.10;;;;;;4998644;28;20449;-75
2022/03/10 04:28:43;;;;;;;24.35;14.50;;;8.70;50.60;;;;;;4999772;28;20022;-75
2022/03/10 04:31:09;;;;;;;24.88;15.02;;;8.70;50.60;;;;;;4998460;28;20384;-76
2022/03/10 04:33:34;;;;;;;22.63;14.07;;;8.70;51.00;;;;;;5008264;28;20058;-76
2022/03/10 04:36:00;;;;;;;23.77;13.98;;;8.70;50.90;;;;;;4998361;28;20023;-75
2022/03/10 04:38:25;;;;;;;23.67;15.13;;;8.70;50.80;;;;;;4998253;28;20022;-76
2022/03/10 04:40:51;;;;;;;24.40;14.95;;;8.80;50.70;;;;;;4996592;28;20046;-76
2022/03/10 04:43:17;;;;;;;22.55;13.65;;;8.80;50.70;;;;;;4996633;28;20556;-76
2022/03/10 04:45:43;;;;;;;27.65;14.60;;;8.90;50.60;;;;;;4996457;28;20489;-74
2022/03/10 04:48:09;;;;;;;20.85;13.40;;;8.90;50.60;;;;;;4996767;28;20053;-74
2022/03/10 04:50:35;;;;;;;20.60;13.50;;;8.90;50.50;;;;;;4996436;28;20481;-74
2022/03/10 04:53:00;;;;;;;23.85;14.15;;;9.00;50.70;;;;;;4996727;28;20041;-75
2022/03/10 04:55:26;;;;;;;25.30;14.13;;;9.00;50.70;;;;;;4996233;28;20444;-74
2022/03/10 04:57:52;;;;;;;23.60;14.43;;;9.00;50.70;;;;;;4997085;28;20034;-74
2022/03/10 05:00:18;;;;;;;25.05;15.02;;;9.00;50.70;;;;;;4995652;28;20023;-73
2022/03/10 05:02:45;;;;;;;23.63;15.48;;;8.90;50.70;;;;;;4996602;28;20383;-74
2022/03/10 05:05:14;;;;;;;21.75;14.68;;;8.90;50.80;;;;;;4996181;28;20026;-74
2022/03/10 05:07:43;;;;;;;23.33;14.32;;;8.90;50.80;;;;;;4996352;28;20042;-74
2022/03/10 05:10:11;;;;;;;27.48;16.80;;;8.80;50.50;;;;;;4996406;28;20026;-74
2022/03/10 05:12:57;;;;;;;25.30;14.80;;;8.70;50.70;;;;;;4996387;28;20084;-73
2022/03/10 05:15:24;;;;;;;26.70;15.00;;;8.60;50.70;;;;;;4994702;28;20031;-73
2022/03/10 05:17:51;;;;;;;27.75;15.45;;;8.60;51.10;;;;;;4996715;28;20069;-74
2022/03/10 05:20:20;;;;;;;26.55;14.90;;;8.40;51.20;;;;;;4996000;28;20441;-74
2022/03/10 05:22:51;;;;;;;23.33;14.93;;;8.40;51.80;;;;;;4995897;28;20019;-74
2022/03/10 05:25:19;;;;;;;28.35;15.77;;;8.40;51.50;;;;;;4995871;28;20033;-73
2022/03/10 05:27:46;;;;;;;24.15;14.98;;;8.40;51.60;;;;;;4995656;28;20045;-72
2022/03/10 05:30:12;;;;;;;26.27;15.80;;;8.40;51.50;;;;;;4995991;28;20027;-72
2022/03/10 05:32:39;;;;;;;27.92;17.08;;;8.30;51.70;;;;;;4996019;28;20033;-73
2022/03/10 05:35:06;;;;;;;28.33;16.02;;;8.20;51.70;;;;;;4995689;28;20034;-74
2022/03/10 05:37:34;;;;;;;27.35;16.50;;;8.10;51.90;;;;;;4995043;28;20030;-74
2022/03/10 05:40:00;;;;;;;29.17;14.88;;;8.10;52.20;;;;;;4995438;28;20049;-75
2022/03/10 05:42:25;;;;;;;27.20;14.65;;;8.00;52.60;;;;;;4995307;28;20478;-75
2022/03/10 05:44:51;;;;;;;25.10;15.20;;;7.90;52.40;;;;;;4995318;28;20034;-75
2022/03/10 05:47:17;;;;;;;24.02;15.13;;;7.90;52.40;;;;;;4995193;28;20034;-74
2022/03/10 05:49:42;;;;;;;28.45;15.18;;;7.90;52.40;;;;;;4995910;28;20117;-72
2022/03/10 05:52:08;;;;;;;29.88;16.25;;;7.90;52.40;;;;;;4995589;28;20027;-73
2022/03/10 05:54:33;;;;;;;24.73;14.05;;;7.90;52.30;;;;;;4995284;28;20034;-73
2022/03/10 05:56:59;;;;;;;26.42;15.63;;;7.90;52.40;;;;;;4995510;28;20546;-73
2022/03/10 05:59:24;;;;;;;22.65;14.63;;;8.10;52.30;;;;;;4995361;28;20513;-73
2022/03/10 06:01:50;;;;;;;25.77;15.02;;;8.10;52.30;;;;;;4995647;28;20426;-73
2022/03/10 06:04:17;;;;;;;27.42;14.30;;;8.10;52.10;;;;;;4994529;28;20036;-73
2022/03/10 06:06:43;;;;;;;29.35;15.45;;;8.30;51.90;;;;;;4995252;28;20038;-73
2022/03/10 06:09:09;;;;;;;23.77;14.50;;;8.20;51.40;;;;;;4994317;28;20044;-73
2022/03/10 06:11:35;;;;;;;23.83;14.95;;;8.20;51.60;;;;;;4995487;28;20057;-73
2022/03/10 06:14:01;;;;;;;24.33;13.93;;;8.10;51.60;;;;;;4994840;28;20038;-76
2022/03/10 06:16:26;;;;;;;23.33;14.02;;;8.20;53.50;;;;;;4995422;28;20026;-79
2022/03/10 06:18:53;;;;;;;20.92;13.07;;;8.20;54.00;;;;;;4993950;28;20030;-77
2022/03/10 06:21:18;;;;;;;21.73;13.50;;;8.30;54.20;;;;;;4993925;28;20076;-77
2022/03/10 06:23:44;;;;;;;20.02;12.15;;;8.40;54.60;;;;;;4993917;28;20429;-77
2022/03/10 06:26:09;;;;;;;20.38;12.30;;;8.40;55.80;;;;;;4993742;28;20551;-77
2022/03/10 06:28:35;;;;;;;16.88;10.70;;;8.50;55.80;;;;;;4993777;28;20038;-77
2022/03/10 06:31:01;;;;;;;20.88;12.60;;;8.70;56.40;;;;;;4994024;28;20045;-78
2022/03/10 06:33:26;;;;;;;22.67;11.93;;;8.70;55.10;;;;;;4993618;28;20026;-76
2022/03/10 06:35:52;;;;;;;20.52;11.68;;;8.90;54.60;;;;;;4993918;28;20027;-76
2022/03/10 06:38:18;;;;;;;22.77;11.57;;;8.90;55.10;;;;;;4993464;28;20026;-75
2022/03/10 06:40:44;;;;;;;21.77;13.20;;;9.00;55.20;;;;;;4992631;28;20066;-75
2022/03/10 06:43:09;;;;;;;24.52;13.60;;;9.10;54.60;;;;;;4993491;28;20031;-76
2022/03/10 06:45:35;;;;;;;23.55;13.45;;;9.20;54.10;;;;;;4993589;28;20382;-75
2022/03/10 06:48:00;;;;;;;24.20;13.65;;;9.20;53.90;;;;;;4993500;28;20042;-76
2022/03/10 06:50:27;;;;;;;26.23;14.38;;;9.20;53.60;;;;;;4993711;28;20546;-76
2022/03/10 06:52:56;;;;;;;24.77;13.00;;;9.30;54.00;;;;;;4993268;28;20474;-76
2022/03/10 06:55:23;;;;;;;21.90;13.55;;;9.40;53.20;;;;;;4993468;28;20105;-77
2022/03/10 06:57:48;;;;;;;26.85;15.45;;;9.40;52.20;;;;;;4993538;28;20474;-76
2022/03/10 07:00:17;;;;;;;18.50;12.07;;;9.40;51.90;;;;;;4993294;28;20048;-75
2022/03/10 07:02:42;;;;;;;23.25;13.18;;;9.40;52.10;;;;;;4993438;28;20022;-75
2022/03/10 07:05:08;;;;;;;24.90;14.05;;;9.40;51.30;;;;;;4993501;28;20096;-80
2022/03/10 07:07:35;;;;;;;21.17;13.43;;;9.40;50.50;;;;;;4991734;28;20034;-81
2022/03/10 07:10:00;;;;;;;18.40;12.27;;;9.30;50.20;;;;;;4993754;28;20477;-80
2022/03/10 07:12:27;;;;;;;22.30;13.65;;;9.30;50.70;;;;;;4994053;28;20037;-81
2022/03/10 07:14:53;;;;;;;21.48;12.10;;;9.40;50.30;;;;;;4993419;28;20073;-79
2022/03/10 07:17:19;;;;;;;20.08;11.98;;;9.40;50.80;;;;;;4993673;28;21238;-80
2022/03/10 07:19:45;;;;;;;21.63;13.70;;;9.40;51.00;;;;;;4993343;28;20139;-81
2022/03/10 07:22:16;;;;;;;23.52;13.57;;;9.50;50.70;;;;;;4990486;28;20441;-76
2022/03/10 07:24:41;;;;;;;21.83;13.80;;;9.50;50.60;;;;;;4993284;28;20383;-80
2022/03/10 07:27:07;;;;;;;24.65;13.05;;;9.60;49.60;;;;;;4992237;28;20033;-82
2022/03/10 07:29:33;;;;;;;23.00;14.05;;;9.50;49.30;;;;;;4992572;28;20397;-81
2022/03/10 07:31:58;;;;;;;23.95;14.38;;;9.40;49.00;;;;;;4991715;28;20028;-80
2022/03/10 07:34:24;;;;;;;21.50;14.57;;;9.40;49.20;;;;;;4993462;28;20022;-85
2022/03/10 07:36:50;;;;;;;24.42;14.43;;;9.40;49.30;;;;;;4992642;28;20057;-83
2022/03/10 07:39:15;;;;;;;23.83;14.32;;;9.50;49.20;;;;;;4993447;28;20054;-82
2022/03/10 07:41:41;;;;;;;23.30;14.80;;;9.50;49.20;;;;;;4991100;28;20058;-82
2022/03/10 07:44:06;;;;;;;25.33;14.35;;;9.50;49.30;;;;;;5001192;28;20174;-81
2022/03/10 07:46:32;;;;;;;25.48;13.63;;;9.60;49.50;;;;;;4994390;28;20022;-81
2022/03/10 07:48:58;;;;;;;27.25;15.98;;;9.70;49.10;;;;;;4997885;28;20030;-83
2022/03/10 07:51:24;;;;;;;22.55;14.90;;;9.80;48.70;;;;;;4999950;28;20044;-82
2022/03/10 07:53:49;;;;;;;23.27;14.43;;;9.90;49.20;;;;;;5009288;28;20072;-82
2022/03/10 07:56:15;;;;;;;26.38;15.48;;;10.00;49.10;;;;;;5005697;28;20073;-82
2022/03/10 07:58:44;;;;;;;26.75;15.07;;;10.00;48.90;;;;;;5003396;28;20465;-81
2022/03/10 08:01:09;;;;;;;26.38;15.27;;;10.10;48.50;;;;;;5009308;28;20430;-82
2022/03/10 08:03:38;;;;;;;22.88;14.55;;;10.10;48.90;;;;;;4998155;28;20054;-82
2022/03/10 08:06:04;;;;;;;27.60;15.63;;;10.10;48.80;;;;;;4996083;28;20035;-81
2022/03/10 08:08:29;;;;;;;29.10;15.75;;;10.20;48.60;;;;;;5005834;28;20085;-82
2022/03/10 08:10:55;;;;;;;22.35;14.20;;;10.10;49.00;;;;;;5008892;28;20040;-82
2022/03/10 08:13:25;;;;;;;26.90;15.40;;;10.10;48.70;;;;;;4988143;28;20034;-79
2022/03/10 08:15:50;;;;;;;23.67;14.75;;;10.20;48.80;;;;;;4990165;28;20477;-80
2022/03/10 08:18:17;;;;;;;26.95;14.80;;;10.10;48.60;;;;;;4980350;28;20085;-79
2022/03/10 08:20:42;;;;;;;24.85;15.18;;;10.20;49.50;;;;;;4989027;28;20038;-82
2022/03/10 08:23:09;;;;;;;23.02;15.68;;;10.20;48.80;;;;;;4998882;28;20129;-82
2022/03/10 08:25:36;;;;;;;25.20;15.73;;;10.10;49.00;;;;;;5008796;28;20033;-82
2022/03/10 08:28:03;;;;;;;24.38;14.60;;;10.20;49.30;;;;;;5007702;28;20494;-80
2022/03/10 08:30:28;;;;;;;24.77;14.85;;;10.30;49.20;;;;;;4990256;28;20038;-79
2022/03/10 08:32:54;;;;;;;25.40;15.25;;;10.50;48.70;;;;;;4995650;28;20027;-79
2022/03/10 08:35:20;;;;;;;26.00;14.43;;;10.60;48.20;;;;;;5003601;28;20171;-81
2022/03/10 08:37:45;;;;;;;26.20;15.85;;;10.70;48.20;;;;;;5004599;28;20025;-78
2022/03/10 08:40:15;;;;;;;26.55;16.52;;;10.80;48.50;;;;;;4997373;28;20402;-80
2022/03/10 08:42:42;;;;;;;27.40;16.85;;;10.90;48.20;;;;;;4997861;28;20029;-79
2022/03/10 08:45:08;;;;;;;25.58;16.08;;;11.00;48.20;;;;;;5000468;28;20022;-79
2022/03/10 08:47:34;;;;;;;21.48;14.68;;;11.00;48.10;;;;;;5003612;28;20033;-79
2022/03/10 08:50:00;;;;;;;25.63;15.95;;;11.10;48.10;;;;;;4994153;28;20034;-79
2022/03/10 08:52:25;;;;;;;26.98;16.30;;;11.10;47.90;;;;;;5003017;28;20457;-78
2022/03/10 08:54:51;;;;;;;26.67;15.20;;;11.20;48.40;;;;;;4995908;28;20022;-78
2022/03/10 08:57:16;;;;;;;24.15;15.95;;;11.20;48.20;;;;;;5004917;28;20432;-78
2022/03/10 08:59:42;;;;;;;25.58;15.82;;;11.00;48.70;;;;;;4996468;28;20023;-79
2022/03/10 09:02:08;;;;;;;29.83;16.77;;;11.00;49.10;;;;;;4991599;28;20058;-80
2022/03/10 09:04:33;;;;;;;30.17;16.52;;;11.20;48.90;;;;;;4994868;28;20026;-80
2022/03/10 09:06:59;;;;;;;24.65;16.17;;;11.30;49.30;;;;;;4995675;28;20134;-79
2022/03/10 09:09:25;;;;;;;24.15;15.65;;;11.50;48.80;;;;;;4996972;28;20027;-79
2022/03/10 09:11:51;;;;;;;28.73;15.50;;;11.70;48.80;;;;;;4996513;28;20101;-78
2022/03/10 09:14:16;;;;;;;23.30;15.35;;;11.90;47.80;;;;;;4987548;28;20027;-81
2022/03/10 09:16:42;;;;;;;28.48;16.02;;;12.00;48.00;;;;;;4987986;28;20075;-81
2022/03/10 09:19:08;;;;;;;28.50;16.38;;;12.30;47.80;;;;;;5011280;28;20030;-81
2022/03/10 09:21:34;;;;;;;28.83;15.77;;;12.40;47.90;;;;;;4996961;28;20079;-81
2022/03/10 09:23:59;;;;;;;24.77;15.88;;;12.30;47.70;;;;;;5001820;28;20033;-80
2022/03/10 09:26:25;;;;;;;27.50;16.63;;;12.40;48.60;;;;;;5004401;28;20026;-80
2022/03/10 09:28:50;;;;;;;26.38;16.35;;;12.60;48.10;;;;;;5008798;28;20117;-81
2022/03/10 09:31:17;;;;;;;27.80;17.25;;;12.80;47.10;;;;;;5006090;28;20033;-81
2022/03/10 09:33:44;;;;;;;27.38;16.55;;;12.90;47.40;;;;;;5009887;28;20036;-80
2022/03/10 09:36:10;;;;;;;25.67;15.57;;;13.00;47.70;;;;;;5012827;28;20057;-82
2022/03/10 09:38:35;;;;;;;25.20;16.73;;;13.20;47.30;;;;;;5012202;28;20422;-81
2022/03/10 09:41:01;;;;;;;24.48;17.08;;;13.40;47.00;;;;;;5002844;28;20387;-81
2022/03/10 09:43:29;;;;;;;26.75;16.25;;;13.30;46.50;;;;;;5009266;28;20486;-81
2022/03/10 09:45:55;;;;;;;24.95;16.10;;;13.40;47.20;;;;;;5010995;28;20117;-80
2022/03/10 09:48:21;;;;;;;27.55;16.23;;;13.50;47.10;;;;;;5005151;28;20038;-81
2022/03/10 09:50:47;;;;;;;24.10;16.27;;;13.60;47.90;;;;;;5006458;28;20378;-82
2022/03/10 09:53:16;;;;;;;25.30;16.30;;;13.80;47.40;;;;;;5000420;28;20031;-81
2022/03/10 09:55:43;;;;;;;27.25;15.60;;;13.90;46.60;;;;;;5006046;28;20026;-81
2022/03/10 09:58:09;;;;;;;24.98;16.55;;;14.10;45.50;;;;;;5004411;28;20100;-82
2022/03/10 10:00:37;;;;;;;27.95;16.65;;;14.30;45.90;;;;;;4993643;28;20469;-81
2022/03/10 10:03:07;;;;;;;32.45;16.10;;;14.40;46.70;;;;;;4995763;28;20026;-80
2022/03/10 10:05:39;;;;;;;23.45;16.42;;;14.40;47.00;;;;;;4996027;28;20027;-82
2022/03/10 10:08:06;;;;;;;26.90;16.57;;;14.40;47.10;;;;;;4995868;28;20034;-81
2022/03/10 10:10:34;;;;;;;26.23;15.40;;;14.50;46.60;;;;;;4995566;28;20680;-81
2022/03/10 10:13:05;;;;;;;26.52;16.38;;;14.70;46.60;;;;;;4995485;28;20042;-82
2022/03/10 10:15:43;;;;;;;23.98;16.17;;;14.80;45.90;;;;;;4994338;28;20015;-82
2022/03/10 10:18:14;;;;;;;27.30;16.02;;;14.90;45.50;;;;;;4995525;28;20031;-80
2022/03/10 10:20:49;;;;;;;25.13;16.70;;;15.10;45.90;;;;;;4995982;28;20378;-80
2022/03/10 10:23:23;;;;;;;27.63;17.23;;;15.30;45.60;;;;;;4995630;28;20084;-80
2022/03/10 10:26:00;;;;;;;25.08;16.67;;;15.40;45.90;;;;;;4995456;28;20140;-80
2022/03/10 10:28:37;;;;;;;29.25;16.80;;;15.50;46.60;;;;;;4990035;28;20034;-82
2022/03/10 10:31:03;;;;;;;31.25;18.25;;;15.50;46.70;;;;;;4990131;28;20023;-81
2022/03/10 10:33:32;;;;;;;28.02;17.38;;;15.50;46.10;;;;;;4995529;28;20031;-82
2022/03/10 10:36:16;;;;;;;26.98;17.30;;;15.50;45.10;;;;;;4994917;28;20539;-80
2022/03/10 10:38:43;;;;;;;25.35;16.65;;;15.60;45.10;;;;;;4995279;28;20049;-80
2022/03/10 10:41:28;;;;;;;27.20;17.70;;;15.80;45.00;;;;;;4994853;28;20048;-78
2022/03/10 10:44:07;;;;;;;25.48;17.23;;;15.90;44.10;;;;;;4983241;28;20482;-77
2022/03/10 10:46:48;;;;;;;24.17;17.25;;;16.10;44.70;;;;;;4992983;28;20035;-77
2022/03/10 10:49:16;;;;;;;24.10;16.52;;;16.20;45.30;;;;;;4994155;28;20040;-78
2022/03/10 10:51:48;;;;;;;28.45;16.10;;;16.30;45.10;;;;;;4992976;28;20470;-77
2022/03/10 10:54:20;;;;;;;29.00;16.45;;;16.60;45.30;;;;;;4991733;28;20118;-77
2022/03/10 10:56:47;;;;;;;25.52;16.52;;;16.80;44.70;;;;;;4993384;28;20035;-77
2022/03/10 10:59:39;;;;;;;26.30;16.65;;;16.90;44.00;;;;;;4991647;28;20034;-77
2022/03/10 11:02:07;;;;;;;24.77;15.98;;;16.90;43.60;;;;;;4993053;28;20382;-77
2022/03/10 11:04:32;;;;;;;25.75;16.42;;;17.00;44.00;;;;;;4992942;28;20030;-77
2022/03/10 11:06:58;;;;;;;25.27;16.50;;;17.00;43.40;;;;;;4992391;28;20041;-77
2022/03/10 11:09:25;;;;;;;26.10;16.30;;;17.00;44.00;;;;;;4993078;28;20026;-77
2022/03/10 11:11:52;;;;;;;24.30;16.48;;;17.10;44.10;;;;;;4993053;28;20213;-77
2022/03/10 11:14:19;;;;;;;28.08;16.98;;;17.10;42.90;;;;;;4992791;28;20034;-78
2022/03/10 11:16:45;;;;;;;24.05;16.15;;;17.10;42.30;;;;;;4993654;28;20026;-78
2022/03/10 11:19:15;;;;;;;29.52;16.98;;;17.00;42.60;;;;;;4993395;28;20030;-79
2022/03/10 11:21:56;;;;;;;24.88;17.20;;;17.00;42.90;;;;;;4991873;28;20023;-80
2022/03/10 11:24:34;;;;;;;24.13;16.58;;;17.10;42.50;;;;;;4990424;28;20128;-80
2022/03/10 11:27:12;;;;;;;24.73;16.52;;;17.10;42.30;;;;;;4992191;28;20030;-80
2022/03/10 11:29:39;;;;;;;26.42;16.80;;;17.00;42.20;;;;;;4993261;28;20039;-80
2022/03/10 11:32:06;;;;;;;23.88;16.40;;;17.20;43.60;;;;;;4993969;28;20022;-79
2022/03/10 11:34:54;;;;;;;28.88;16.85;;;17.30;42.60;;;;;;4993856;28;20443;-80
2022/03/10 11:37:41;;;;;;;25.50;17.10;;;17.30;42.60;;;;;;4974237;28;20467;-80
2022/03/10 11:40:13;;;;;;;29.05;17.35;;;17.10;42.20;;;;;;4974250;28;20510;-79
2022/03/10 11:42:40;;;;;;;27.50;16.83;;;17.00;43.80;;;;;;4974744;28;20062;-79
2022/03/10 11:45:20;;;;;;;28.98;16.38;;;17.00;43.10;;;;;;4974523;28;20434;-79
2022/03/10 11:47:48;;;;;;;23.85;16.80;;;17.00;42.20;;;;;;4980959;28;20422;-79
2022/03/10 11:50:25;;;;;;;24.65;17.17;;;17.20;42.70;;;;;;4992809;28;20034;-80
2022/03/10 11:53:04;;;;;;;25.08;16.48;;;17.20;41.90;;;;;;4989097;28;20027;-80
2022/03/10 11:55:48;;;;;;;27.38;15.98;;;17.20;42.10;;;;;;4992704;28;20081;-80
2022/03/10 11:58:14;;;;;;;25.33;16.08;;;17.30;42.70;;;;;;4991265;28;20038;-79
2022/03/10 12:00:51;;;;;;;26.10;16.35;;;17.40;42.40;;;;;;4992239;28;20053;-80
2022/03/10 12:03:33;;;;;;;23.40;16.30;;;17.50;42.10;;;;;;4991220;28;20031;-79
2022/03/10 12:06:15;;;;;;;24.17;16.05;;;17.30;40.70;;;;;;4992619;28;20097;-80
2022/03/10 12:08:40;;;;;;;25.38;15.55;;;17.40;42.20;;;;;;4991740;28;20034;-79
2022/03/10 12:11:15;;;;;;;26.52;16.95;;;17.40;42.00;;;;;;4992288;28;20044;-78
2022/03/10 12:13:44;;;;;;;24.40;16.63;;;17.50;42.20;;;;;;4991879;28;20042;-77
2022/03/10 12:16:28;;;;;;;22.38;14.13;;;17.60;42.60;;;;;;4992494;28;20034;-79
2022/03/10 12:18:54;;;;;;;21.70;14.40;;;17.70;42.90;;;;;;4991951;28;20034;-80
2022/03/10 12:21:24;;;;;;;24.30;15.20;;;18.00;43.50;;;;;;4992656;28;20030;-76
2022/03/10 12:24:00;;;;;;;20.17;14.38;;;18.10;42.50;;;;;;4992037;28;20070;-75
2022/03/10 12:26:33;;;;;;;27.55;16.63;;;18.20;42.90;;;;;;4989681;28;20036;-75
2022/03/10 12:29:02;;;;;;;23.83;15.25;;;18.30;41.60;;;;;;4991088;28;20144;-78
2022/03/10 12:31:29;;;;;;;22.27;14.43;;;18.40;41.80;;;;;;4992251;28;20101;-76
2022/03/10 12:34:00;;;;;;;30.05;16.15;;;18.50;41.70;;;;;;4992096;28;20038;-76
2022/03/10 12:36:51;;;;;;;21.00;14.50;;;18.60;41.50;;;;;;4991298;28;20026;-76
2022/03/10 12:39:25;;;;;;;21.92;15.18;;;18.60;40.30;;;;;;4993788;28;20184;-76
2022/03/10 12:41:54;;;;;;;21.75;14.68;;;18.80;40.40;;;;;;4996525;28;20058;-76
2022/03/10 12:44:24;;;;;;;21.67;14.35;;;18.70;40.00;;;;;;4996427;28;20030;-76